sensor_id;sensor_type;location;lat;lon;timestamp;pressure;altitude;pressure_sealevel;temperature;humidity
73516;BME280;61763;51.416;5.442;2022-12-07T00:01:07;101763.88;;;2.39;100.00
73516;BME280;61763;51.416;5.442;2022-12-07T00:03:34;101766.53;;;2.28;100.00
73516;BME280;61763;51.416;5.442;2022-12-07T00:06:00;101771.88;;;2.22;100.00
73516;BME280;61763;51.416;5.442;2022-12-07T00:08:26;101768.34;;;2.27;100.00
73516;BME280;61763;51.416;5.442;2022-12-07T00:10:52;101764.78;;;2.18;100.00
73516;BME280;61763;51.416;5.442;2022-12-07T00:13:17;101761.25;;;2.08;100.00
73516;BME280;61763;51.416;5.442;2022-12-07T00:15:43;101763.91;;;1.94;100.00
73516;BME280;61763;51.416;5.442;2022-12-07T00:18:08;101758.56;;;1.97;100.00
73516;BME280;61763;51.416;5.442;2022-12-07T00:20:33;101747.94;;;1.88;100.00
73516;BME280;61763;51.416;5.442;2022-12-07T00:22:59;101748.81;;;1.79;100.00
73516;BME280;61763;51.416;5.442;2022-12-07T00:25:25;101759.47;;;1.65;100.00
73516;BME280;61763;51.416;5.442;2022-12-07T00:27:52;101755.88;;;1.48;100.00
73516;BME280;61763;51.416;5.442;2022-12-07T00:30:20;101755.84;;;1.37;100.00
73516;BME280;61763;51.416;5.442;2022-12-07T00:32:46;101748.75;;;1.28;100.00
73516;BME280;61763;51.416;5.442;2022-12-07T00:35:11;101740.72;;;1.16;100.00
73516;BME280;61763;51.416;5.442;2022-12-07T00:37:37;101746.03;;;1.08;100.00
73516;BME280;61763;51.416;5.442;2022-12-07T00:40:02;101739.84;;;1.09;100.00
73516;BME280;61763;51.416;5.442;2022-12-07T00:42:27;101753.16;;;1.26;100.00
73516;BME280;61763;51.416;5.442;2022-12-07T00:44:53;101747.84;;;1.29;100.00
73516;BME280;61763;51.416;5.442;2022-12-07T00:47:18;101737.22;;;1.26;100.00
73516;BME280;61763;51.416;5.442;2022-12-07T00:49:44;101740.72;;;1.16;100.00
73516;BME280;61763;51.416;5.442;2022-12-07T00:52:09;101735.41;;;1.10;100.00
73516;BME280;61763;51.416;5.442;2022-12-07T00:54:34;101736.28;;;1.12;100.00
73516;BME280;61763;51.416;5.442;2022-12-07T00:57:00;101735.38;;;1.05;100.00
73516;BME280;61763;51.416;5.442;2022-12-07T00:59:25;101738.91;;;0.95;100.00
73516;BME280;61763;51.416;5.442;2022-12-07T01:01:50;101729.13;;;0.86;100.00
73516;BME280;61763;51.416;5.442;2022-12-07T01:04:16;101737.09;;;0.84;100.00
73516;BME280;61763;51.416;5.442;2022-12-07T01:06:41;101735.38;;;0.96;100.00
73516;BME280;61763;51.416;5.442;2022-12-07T01:09:06;101735.38;;;0.97;100.00
73516;BME280;61763;51.416;5.442;2022-12-07T01:11:32;101735.38;;;1.05;100.00
73516;BME280;61763;51.416;5.442;2022-12-07T01:13:59;101744.25;;;1.05;100.00
73516;BME280;61763;51.416;5.442;2022-12-07T01:16:26;101733.63;;;1.09;100.00
73516;BME280;61763;51.416;5.442;2022-12-07T01:18:54;101738.94;;;1.10;100.00
73516;BME280;61763;51.416;5.442;2022-12-07T01:21:24;101741.59;;;1.04;100.00
73516;BME280;61763;51.416;5.442;2022-12-07T01:23:50;101742.44;;;0.97;100.00
73516;BME280;61763;51.416;5.442;2022-12-07T01:26:20;101744.22;;;0.92;100.00
73516;BME280;61763;51.416;5.442;2022-12-07T01:28:46;101740.66;;;0.94;100.00
73516;BME280;61763;51.416;5.442;2022-12-07T01:31:19;101745.03;;;0.78;100.00
73516;BME280;61763;51.416;5.442;2022-12-07T01:33:47;101746.78;;;0.79;100.00
73516;BME280;61763;51.416;5.442;2022-12-07T01:38:41;101730.00;;;0.85;100.00
73516;BME280;61763;51.416;5.442;2022-12-07T01:41:06;101741.56;;;0.93;100.00
73516;BME280;61763;51.416;5.442;2022-12-07T01:43:33;101741.59;;;1.07;100.00
73516;BME280;61763;51.416;5.442;2022-12-07T01:46:00;101746.03;;;1.13;100.00
73516;BME280;61763;51.416;5.442;2022-12-07T01:51:02;101739.00;;;1.33;100.00
73516;BME280;61763;51.416;5.442;2022-12-07T01:53:30;101731.06;;;1.52;100.00
73516;BME280;61763;51.416;5.442;2022-12-07T01:55:56;101739.06;;;1.60;100.00
73516;BME280;61763;51.416;5.442;2022-12-07T01:58:23;101739.94;;;1.60;100.00
73516;BME280;61763;51.416;5.442;2022-12-07T02:00:49;101736.41;;;1.66;100.00
73516;BME280;61763;51.416;5.442;2022-12-07T02:03:19;101745.28;;;1.72;100.00
73516;BME280;61763;51.416;5.442;2022-12-07T02:05:47;101743.50;;;1.81;100.00
73516;BME280;61763;51.416;5.442;2022-12-07T02:08:13;101738.16;;;1.88;100.00
73516;BME280;61763;51.416;5.442;2022-12-07T02:10:39;101735.53;;;1.99;100.00
73516;BME280;61763;51.416;5.442;2022-12-07T02:13:10;101730.19;;;2.04;100.00
73516;BME280;61763;51.416;5.442;2022-12-07T02:21:12;101724.84;;;1.87;100.00
73516;BME280;61763;51.416;5.442;2022-12-07T02:26:36;101723.97;;;1.94;100.00
73516;BME280;61763;51.416;5.442;2022-12-07T02:32:03;101733.72;;;2.01;100.00
73516;BME280;61763;51.416;5.442;2022-12-07T02:37:58;101731.97;;;2.06;100.00
73516;BME280;61763;51.416;5.442;2022-12-07T02:42:59;101728.41;;;1.90;100.00
73516;BME280;61763;51.416;5.442;2022-12-07T02:45:27;101728.41;;;1.70;100.00
73516;BME280;61763;51.416;5.442;2022-12-07T02:47:56;101725.75;;;1.66;100.00
73516;BME280;61763;51.416;5.442;2022-12-07T02:50:24;101712.41;;;1.47;100.00
73516;BME280;61763;51.416;5.442;2022-12-07T02:52:49;101724.84;;;1.44;100.00
73516;BME280;61763;51.416;5.442;2022-12-07T02:55:17;101723.06;;;1.38;100.00
73516;BME280;61763;51.416;5.442;2022-12-07T02:58:00;101724.84;;;1.37;100.00
73516;BME280;61763;51.416;5.442;2022-12-07T03:00:31;101721.25;;;1.17;100.00
73516;BME280;61763;51.416;5.442;2022-12-07T03:03:08;101727.44;;;1.11;100.00
73516;BME280;61763;51.416;5.442;2022-12-07T03:08:23;101733.66;;;1.16;100.00
73516;BME280;61763;51.416;5.442;2022-12-07T03:11:06;101725.72;;;1.32;100.00
73516;BME280;61763;51.416;5.442;2022-12-07T03:16:14;101738.19;;;1.67;100.00
73516;BME280;61763;51.416;5.442;2022-12-07T03:19:06;101721.31;;;1.79;100.00
73516;BME280;61763;51.416;5.442;2022-12-07T03:22:03;101726.66;;;1.83;100.00
73516;BME280;61763;51.416;5.442;2022-12-07T03:24:36;101730.19;;;1.68;100.00
73516;BME280;61763;51.416;5.442;2022-12-07T03:27:09;101726.63;;;1.51;100.00
73516;BME280;61763;51.416;5.442;2022-12-07T03:29:42;101727.50;;;1.42;100.00
73516;BME280;61763;51.416;5.442;2022-12-07T03:32:16;101723.94;;;1.37;100.00
73516;BME280;61763;51.416;5.442;2022-12-07T03:35:09;101717.72;;;1.26;100.00
73516;BME280;61763;51.416;5.442;2022-12-07T03:37:45;101719.50;;;1.30;100.00
73516;BME280;61763;51.416;5.442;2022-12-07T03:40:18;101721.25;;;1.26;100.00
73516;BME280;61763;51.416;5.442;2022-12-07T03:42:48;101708.84;;;1.23;100.00
73516;BME280;61763;51.416;5.442;2022-12-07T03:45:14;101717.72;;;1.16;100.00
73516;BME280;61763;51.416;5.442;2022-12-07T03:47:48;101711.47;;;1.13;100.00
73516;BME280;61763;51.416;5.442;2022-12-07T03:50:25;101710.59;;;1.12;100.00
73516;BME280;61763;51.416;5.442;2022-12-07T03:52:56;101707.06;;;1.18;100.00
73516;BME280;61763;51.416;5.442;2022-12-07T03:55:29;101723.91;;;1.29;100.00
73516;BME280;61763;51.416;5.442;2022-12-07T03:58:00;101730.16;;;1.37;100.00
73516;BME280;61763;51.416;5.442;2022-12-07T04:00:27;101724.84;;;1.51;100.00
73516;BME280;61763;51.416;5.442;2022-12-07T04:02:53;101724.88;;;1.70;100.00
73516;BME280;61763;51.416;5.442;2022-12-07T04:05:19;101721.31;;;1.79;100.00
73516;BME280;61763;51.416;5.442;2022-12-07T04:07:45;101721.31;;;1.77;100.00
73516;BME280;61763;51.416;5.442;2022-12-07T04:10:12;101721.31;;;1.79;100.00
73516;BME280;61763;51.416;5.442;2022-12-07T04:12:37;101721.31;;;1.80;100.00
73516;BME280;61763;51.416;5.442;2022-12-07T04:15:03;101718.66;;;1.82;100.00
73516;BME280;61763;51.416;5.442;2022-12-07T04:17:29;101717.78;;;1.89;100.00
73516;BME280;61763;51.416;5.442;2022-12-07T04:19:54;101715.97;;;1.92;100.00
73516;BME280;61763;51.416;5.442;2022-12-07T04:22:19;101716.91;;;1.93;100.00
73516;BME280;61763;51.416;5.442;2022-12-07T04:24:45;101715.97;;;1.99;100.00
73516;BME280;61763;51.416;5.442;2022-12-07T04:27:10;101718.66;;;2.03;100.00
73516;BME280;61763;51.416;5.442;2022-12-07T04:29:36;101710.66;;;2.06;100.00
73516;BME280;61763;51.416;5.442;2022-12-07T04:32:01;101714.19;;;2.08;100.00
73516;BME280;61763;51.416;5.442;2022-12-07T04:34:26;101711.53;;;2.12;100.00
73516;BME280;61763;51.416;5.442;2022-12-07T04:36:52;101709.78;;;2.14;100.00
73516;BME280;61763;51.416;5.442;2022-12-07T04:39:27;101706.22;;;2.10;100.00
73516;BME280;61763;51.416;5.442;2022-12-07T04:41:52;101699.09;;;2.04;100.00
73516;BME280;61763;51.416;5.442;2022-12-07T04:44:18;101698.25;;;2.01;100.00
73516;BME280;61763;51.416;5.442;2022-12-07T04:46:44;101693.78;;;2.01;100.00
73516;BME280;61763;51.416;5.442;2022-12-07T04:49:11;101706.22;;;2.01;100.00
73516;BME280;61763;51.416;5.442;2022-12-07T04:51:37;101701.75;;;2.09;100.00
73516;BME280;61763;51.416;5.442;2022-12-07T04:54:04;101693.78;;;2.12;100.00
73516;BME280;61763;51.416;5.442;2022-12-07T04:56:29;101696.44;;;2.18;100.00
73516;BME280;61763;51.416;5.442;2022-12-07T04:58:55;101698.19;;;2.21;100.00
73516;BME280;61763;51.416;5.442;2022-12-07T05:01:21;101696.41;;;2.29;100.00
73516;BME280;61763;51.416;5.442;2022-12-07T05:03:47;101701.72;;;2.34;100.00
73516;BME280;61763;51.416;5.442;2022-12-07T05:06:13;101704.38;;;2.37;100.00
73516;BME280;61763;51.416;5.442;2022-12-07T05:08:39;101702.59;;;2.40;100.00
73516;BME280;61763;51.416;5.442;2022-12-07T05:11:05;101705.22;;;2.56;100.00
73516;BME280;61763;51.416;5.442;2022-12-07T05:13:32;101702.56;;;2.50;100.00
73516;BME280;61763;51.416;5.442;2022-12-07T05:15:57;101699.91;;;2.47;100.00
73516;BME280;61763;51.416;5.442;2022-12-07T05:18:23;101694.59;;;2.47;100.00
73516;BME280;61763;51.416;5.442;2022-12-07T05:20:48;101694.59;;;2.47;100.00
73516;BME280;61763;51.416;5.442;2022-12-07T05:23:14;101703.47;;;2.42;100.00
73516;BME280;61763;51.416;5.442;2022-12-07T05:25:39;101690.16;;;2.44;100.00
73516;BME280;61763;51.416;5.442;2022-12-07T05:28:05;101695.47;;;2.45;100.00
73516;BME280;61763;51.416;5.442;2022-12-07T05:30:31;101689.25;;;2.47;100.00
73516;BME280;61763;51.416;5.442;2022-12-07T05:32:57;101690.16;;;2.44;100.00
73516;BME280;61763;51.416;5.442;2022-12-07T05:35:23;101685.72;;;2.43;100.00
73516;BME280;61763;51.416;5.442;2022-12-07T05:37:48;101695.47;;;2.42;100.00
73516;BME280;61763;51.416;5.442;2022-12-07T05:40:15;101695.50;;;2.36;100.00
73516;BME280;61763;51.416;5.442;2022-12-07T05:42:41;101690.22;;;2.27;100.00
73516;BME280;61763;51.416;5.442;2022-12-07T05:45:08;101684.88;;;2.16;100.00
73516;BME280;61763;51.416;5.442;2022-12-07T05:47:34;101684.03;;;2.09;100.00
73516;BME280;61763;51.416;5.442;2022-12-07T05:49:59;101684.03;;;1.97;100.00
73516;BME280;61763;51.416;5.442;2022-12-07T05:52:24;101678.72;;;1.82;100.00
73516;BME280;61763;51.416;5.442;2022-12-07T05:54:51;101675.16;;;1.78;100.00
73516;BME280;61763;51.416;5.442;2022-12-07T05:57:16;101671.66;;;1.70;100.00
73516;BME280;61763;51.416;5.442;2022-12-07T05:59:41;101675.19;;;1.55;100.00
73516;BME280;61763;51.416;5.442;2022-12-07T06:02:14;101678.75;;;1.43;100.00
73516;BME280;61763;51.416;5.442;2022-12-07T06:04:44;101683.16;;;1.35;100.00
73516;BME280;61763;51.416;5.442;2022-12-07T06:07:12;101688.47;;;1.29;100.00
73516;BME280;61763;51.416;5.442;2022-12-07T06:09:38;101678.69;;;1.18;100.00
73516;BME280;61763;51.416;5.442;2022-12-07T06:12:04;101690.19;;;1.08;100.00
73516;BME280;61763;51.416;5.442;2022-12-07T06:14:48;101694.59;;;0.92;100.00
73516;BME280;61763;51.416;5.442;2022-12-07T06:17:15;101685.66;;;0.78;100.00
73516;BME280;61763;51.416;5.442;2022-12-07T06:19:40;101695.41;;;0.74;100.00
73516;BME280;61763;51.416;5.442;2022-12-07T06:22:07;101695.41;;;0.69;100.00
73516;BME280;61763;51.416;5.442;2022-12-07T06:24:34;101691.00;;;0.82;100.00
73516;BME280;61763;51.416;5.442;2022-12-07T06:27:00;101693.66;;;0.84;100.00
73516;BME280;61763;51.416;5.442;2022-12-07T06:29:25;101689.19;;;0.72;100.00
73516;BME280;61763;51.416;5.442;2022-12-07T06:31:51;101693.59;;;0.64;100.00
73516;BME280;61763;51.416;5.442;2022-12-07T06:34:19;101688.25;;;0.56;100.00
73516;BME280;61763;51.416;5.442;2022-12-07T06:36:45;101694.41;;;0.44;100.00
73516;BME280;61763;51.416;5.442;2022-12-07T06:39:17;101694.34;;;0.40;100.00
73516;BME280;61763;51.416;5.442;2022-12-07T06:41:43;101697.00;;;0.38;100.00
73516;BME280;61763;51.416;5.442;2022-12-07T06:44:09;101694.34;;;0.37;100.00
73516;BME280;61763;51.416;5.442;2022-12-07T06:46:34;101694.34;;;0.41;100.00
73516;BME280;61763;51.416;5.442;2022-12-07T06:49:04;101690.81;;;0.41;100.00
73516;BME280;61763;51.416;5.442;2022-12-07T06:51:30;101691.75;;;0.43;100.00
73516;BME280;61763;51.416;5.442;2022-12-07T06:53:55;101695.28;;;0.48;100.00
73516;BME280;61763;51.416;5.442;2022-12-07T06:56:21;101698.91;;;0.64;100.00
73516;BME280;61763;51.416;5.442;2022-12-07T06:58:47;101705.19;;;0.77;100.00
73516;BME280;61763;51.416;5.442;2022-12-07T07:01:17;101707.00;;;0.92;100.00
73516;BME280;61763;51.416;5.442;2022-12-07T07:03:44;101696.41;;;1.09;100.00
73516;BME280;61763;51.416;5.442;2022-12-07T07:06:10;101700.84;;;1.14;100.00
73516;BME280;61763;51.416;5.442;2022-12-07T07:08:37;101696.41;;;1.10;100.00
73516;BME280;61763;51.416;5.442;2022-12-07T07:11:03;101696.41;;;1.07;100.00
73516;BME280;61763;51.416;5.442;2022-12-07T07:13:28;101693.75;;;1.13;100.00
73516;BME280;61763;51.416;5.442;2022-12-07T07:15:54;101701.75;;;1.21;100.00
73516;BME280;61763;51.416;5.442;2022-12-07T07:18:20;101692.00;;;1.18;100.00
73516;BME280;61763;51.416;5.442;2022-12-07T07:20:45;101694.66;;;1.15;100.00
73516;BME280;61763;51.416;5.442;2022-12-07T07:23:11;101694.66;;;1.20;100.00
73516;BME280;61763;51.416;5.442;2022-12-07T07:25:37;101693.78;;;1.29;100.00
73516;BME280;61763;51.416;5.442;2022-12-07T07:28:03;101693.78;;;1.30;100.00
73516;BME280;61763;51.416;5.442;2022-12-07T07:30:28;101696.44;;;1.38;100.00
73516;BME280;61763;51.416;5.442;2022-12-07T07:33:01;101707.97;;;1.37;100.00
73516;BME280;61763;51.416;5.442;2022-12-07T07:35:28;101691.13;;;1.39;100.00
73516;BME280;61763;51.416;5.442;2022-12-07T07:37:54;101698.25;;;1.37;100.00
73516;BME280;61763;51.416;5.442;2022-12-07T07:40:20;101700.03;;;1.40;100.00
73516;BME280;61763;51.416;5.442;2022-12-07T07:42:50;101698.22;;;1.31;100.00
73516;BME280;61763;51.416;5.442;2022-12-07T07:45:16;101704.44;;;1.29;100.00
73516;BME280;61763;51.416;5.442;2022-12-07T07:47:41;101700.84;;;1.25;100.00
73516;BME280;61763;51.416;5.442;2022-12-07T07:50:07;101710.66;;;1.40;100.00
73516;BME280;61763;51.416;5.442;2022-12-07T07:52:32;101708.00;;;1.52;100.00
73516;BME280;61763;51.416;5.442;2022-12-07T07:54:58;101704.47;;;1.63;100.00
73516;BME280;61763;51.416;5.442;2022-12-07T07:57:23;101714.22;;;1.73;100.00
73516;BME280;61763;51.416;5.442;2022-12-07T07:59:48;101716.88;;;1.84;100.00
73516;BME280;61763;51.416;5.442;2022-12-07T08:02:19;101712.47;;;1.81;100.00
73516;BME280;61763;51.416;5.442;2022-12-07T08:04:45;101717.78;;;1.87;100.00
73516;BME280;61763;51.416;5.442;2022-12-07T08:07:12;101716.00;;;1.88;100.00
73516;BME280;61763;51.416;5.442;2022-12-07T08:09:37;101715.09;;;1.92;100.00
73516;BME280;61763;51.416;5.442;2022-12-07T08:12:03;101719.53;;;1.98;100.00
73516;BME280;61763;51.416;5.442;2022-12-07T08:14:28;101715.97;;;2.00;100.00
73516;BME280;61763;51.416;5.442;2022-12-07T08:16:54;101718.63;;;1.99;100.00
73516;BME280;61763;51.416;5.442;2022-12-07T08:19:20;101718.63;;;1.96;100.00
73516;BME280;61763;51.416;5.442;2022-12-07T08:21:45;101716.88;;;1.99;100.00
73516;BME280;61763;51.416;5.442;2022-12-07T08:24:12;101711.56;;;2.01;100.00
73516;BME280;61763;51.416;5.442;2022-12-07T08:26:37;101715.06;;;2.09;100.00
73516;BME280;61763;51.416;5.442;2022-12-07T08:29:02;101711.53;;;2.15;100.00
73516;BME280;61763;51.416;5.442;2022-12-07T08:31:28;101723.06;;;2.18;100.00
73516;BME280;61763;51.416;5.442;2022-12-07T08:33:54;101728.38;;;2.29;100.00
73516;BME280;61763;51.416;5.442;2022-12-07T08:36:19;101728.38;;;2.27;100.00
73516;BME280;61763;51.416;5.442;2022-12-07T08:38:46;101729.25;;;2.31;100.00
73516;BME280;61763;51.416;5.442;2022-12-07T08:41:12;101739.00;;;2.38;100.00
73516;BME280;61763;51.416;5.442;2022-12-07T08:43:37;101734.56;;;2.47;100.00
73516;BME280;61763;51.416;5.442;2022-12-07T08:48:36;101732.75;;;2.50;100.00
73516;BME280;61763;51.416;5.442;2022-12-07T08:51:03;101727.38;;;2.67;100.00
73516;BME280;61763;51.416;5.442;2022-12-07T08:53:29;101730.91;;;2.77;100.00
73516;BME280;61763;51.416;5.442;2022-12-07T08:55:55;101726.50;;;2.68;100.00
73516;BME280;61763;51.416;5.442;2022-12-07T08:58:21;101713.16;;;2.73;100.00
73516;BME280;61763;51.416;5.442;2022-12-07T09:00:46;101718.41;;;2.87;100.00
73516;BME280;61763;51.416;5.442;2022-12-07T09:03:12;101722.84;;;2.91;100.00
73516;BME280;61763;51.416;5.442;2022-12-07T09:05:37;101722.81;;;2.97;100.00
73516;BME280;61763;51.416;5.442;2022-12-07T09:08:03;101735.22;;;3.03;100.00
73516;BME280;61763;51.416;5.442;2022-12-07T09:10:29;101721.00;;;3.07;100.00
73516;BME280;61763;51.416;5.442;2022-12-07T09:12:54;101723.63;;;3.14;100.00
73516;BME280;61763;51.416;5.442;2022-12-07T09:15:20;101717.38;;;3.17;100.00
73516;BME280;61763;51.416;5.442;2022-12-07T09:17:45;101719.16;;;3.20;100.00
73516;BME280;61763;51.416;5.442;2022-12-07T09:20:11;101719.06;;;3.32;100.00
73516;BME280;61763;51.416;5.442;2022-12-07T09:22:36;101720.00;;;3.26;100.00
73516;BME280;61763;51.416;5.442;2022-12-07T09:25:03;101723.53;;;3.30;100.00
73516;BME280;61763;51.416;5.442;2022-12-07T09:27:29;101716.34;;;3.41;100.00
73516;BME280;61763;51.416;5.442;2022-12-07T09:29:55;101719.94;;;3.39;100.00
73516;BME280;61763;51.416;5.442;2022-12-07T09:32:21;101720.81;;;3.39;100.00
73516;BME280;61763;51.416;5.442;2022-12-07T09:34:47;101715.38;;;3.51;100.00
73516;BME280;61763;51.416;5.442;2022-12-07T09:37:12;101716.25;;;3.57;100.00
73516;BME280;61763;51.416;5.442;2022-12-07T09:39:38;101712.69;;;3.53;100.00
73516;BME280;61763;51.416;5.442;2022-12-07T09:42:05;101713.59;;;3.55;100.00
73516;BME280;61763;51.416;5.442;2022-12-07T09:44:32;101715.38;;;3.50;100.00
73516;BME280;61763;51.416;5.442;2022-12-07T09:46:58;101715.41;;;3.45;100.00
73516;BME280;61763;51.416;5.442;2022-12-07T09:49:25;101723.50;;;3.35;100.00
73516;BME280;61763;51.416;5.442;2022-12-07T09:52:27;101722.63;;;3.29;100.00
73516;BME280;61763;51.416;5.442;2022-12-07T09:54:53;101726.25;;;3.21;100.00
73516;BME280;61763;51.416;5.442;2022-12-07T09:57:29;101723.56;;;3.21;100.00
73516;BME280;61763;51.416;5.442;2022-12-07T10:00:01;101723.59;;;3.16;100.00
73516;BME280;61763;51.416;5.442;2022-12-07T10:04:57;101720.06;;;3.14;100.00
73516;BME280;61763;51.416;5.442;2022-12-07T10:07:23;101709.38;;;3.17;100.00
73516;BME280;61763;51.416;5.442;2022-12-07T10:09:49;101712.00;;;3.22;100.00
73516;BME280;61763;51.416;5.442;2022-12-07T10:12:14;101711.03;;;3.35;100.00
73516;BME280;61763;51.416;5.442;2022-12-07T10:14:53;101709.25;;;3.40;100.00
73516;BME280;61763;51.416;5.442;2022-12-07T10:22:36;101698.28;;;3.79;100.00
73516;BME280;61763;51.416;5.442;2022-12-07T10:25:08;101697.31;;;3.86;100.00
73516;BME280;61763;51.416;5.442;2022-12-07T10:27:34;101691.97;;;3.86;100.00
73516;BME280;61763;51.416;5.442;2022-12-07T10:29:59;101684.91;;;3.80;100.00
73516;BME280;61763;51.416;5.442;2022-12-07T10:32:31;101686.59;;;3.91;100.00
73516;BME280;61763;51.416;5.442;2022-12-07T10:37:48;101671.28;;;4.08;100.00
73516;BME280;61763;51.416;5.442;2022-12-07T10:40:32;101673.91;;;4.14;100.00
73516;BME280;61763;51.416;5.442;2022-12-07T10:46:07;101673.03;;;4.14;100.00
73516;BME280;61763;51.416;5.442;2022-12-07T10:49:13;101669.38;;;4.18;100.00
73516;BME280;61763;51.416;5.442;2022-12-07T10:58:04;101657.91;;;4.10;100.00
73516;BME280;61763;51.416;5.442;2022-12-07T11:01:04;101658.88;;;4.02;100.00
73516;BME280;61763;51.416;5.442;2022-12-07T11:19:35;101634.03;;;4.70;100.00
73516;BME280;61763;51.416;5.442;2022-12-07T11:25:02;101618.06;;;5.25;100.00
73516;BME280;61763;51.416;5.442;2022-12-07T11:30:21;101616.66;;;5.57;100.00
73516;BME280;61763;51.416;5.442;2022-12-07T11:33:04;101615.50;;;5.72;100.00
73516;BME280;61763;51.416;5.442;2022-12-07T11:38:53;101608.22;;;5.78;100.00
73516;BME280;61763;51.416;5.442;2022-12-07T11:41:24;101607.06;;;5.95;100.00
73516;BME280;61763;51.416;5.442;2022-12-07T11:44:08;101599.75;;;6.05;100.00
73516;BME280;61763;51.416;5.442;2022-12-07T11:49:32;101592.44;;;6.13;100.00
73516;BME280;61763;51.416;5.442;2022-12-07T11:52:04;101593.16;;;6.23;100.00
73516;BME280;61763;51.416;5.442;2022-12-07T11:54:35;101585.13;;;6.21;100.00
73516;BME280;61763;51.416;5.442;2022-12-07T11:57:12;101588.81;;;6.17;100.00
73516;BME280;61763;51.416;5.442;2022-12-07T11:59:47;101589.47;;;6.27;100.00
73516;BME280;61763;51.416;5.442;2022-12-07T12:02:18;101587.50;;;6.37;100.00
73516;BME280;61763;51.416;5.442;2022-12-07T12:07:33;101597.25;;;6.41;100.00
73516;BME280;61763;51.416;5.442;2022-12-07T12:10:22;101597.16;;;6.45;100.00
73516;BME280;61763;51.416;5.442;2022-12-07T12:12:58;101595.34;;;6.46;100.00
73516;BME280;61763;51.416;5.442;2022-12-07T12:15:38;101599.75;;;6.48;100.00
73516;BME280;61763;51.416;5.442;2022-12-07T12:18:11;101595.19;;;6.54;100.00
73516;BME280;61763;51.416;5.442;2022-12-07T12:21:00;101594.50;;;6.44;100.00
73516;BME280;61763;51.416;5.442;2022-12-07T12:23:36;101584.41;;;6.57;100.00
73516;BME280;61763;51.416;5.442;2022-12-07T12:26:05;101581.63;;;6.61;100.00
73516;BME280;61763;51.416;5.442;2022-12-07T12:28:41;101571.03;;;6.55;100.00
73516;BME280;61763;51.416;5.442;2022-12-07T12:31:29;101573.28;;;6.74;100.00
73516;BME280;61763;51.416;5.442;2022-12-07T12:33:58;101564.59;;;6.62;100.00
73516;BME280;61763;51.416;5.442;2022-12-07T12:39:16;101563.56;;;6.27;100.00
73516;BME280;61763;51.416;5.442;2022-12-07T12:41:55;101561.06;;;6.18;100.00
73516;BME280;61763;51.416;5.442;2022-12-07T13:18:39;101522.78;;;6.13;100.00
73516;BME280;61763;51.416;5.442;2022-12-07T13:26:20;101514.16;;;5.95;100.00
73516;BME280;61763;51.416;5.442;2022-12-07T13:31:37;101502.00;;;5.79;100.00
73516;BME280;61763;51.416;5.442;2022-12-07T13:34:26;101502.91;;;5.78;100.00
73516;BME280;61763;51.416;5.442;2022-12-07T13:36:51;101498.19;;;5.44;100.00
73516;BME280;61763;51.416;5.442;2022-12-07T13:39:19;101495.59;;;5.39;100.00
73516;BME280;61763;51.416;5.442;2022-12-07T13:41:51;101502.28;;;5.17;100.00
73516;BME280;61763;51.416;5.442;2022-12-07T13:44:17;101499.66;;;5.11;100.00
73516;BME280;61763;51.416;5.442;2022-12-07T13:49:39;101503.59;;;4.89;100.00
73516;BME280;61763;51.416;5.442;2022-12-07T13:52:31;101501.13;;;4.77;100.00
73516;BME280;61763;51.416;5.442;2022-12-07T13:55:16;101500.38;;;4.67;100.00
73516;BME280;61763;51.416;5.442;2022-12-07T13:57:42;101505.53;;;4.80;100.00
73516;BME280;61763;51.416;5.442;2022-12-07T14:00:29;101501.63;;;5.01;100.00
73516;BME280;61763;51.416;5.442;2022-12-07T14:03:03;101500.66;;;5.05;100.00
73516;BME280;61763;51.416;5.442;2022-12-07T14:05:33;101487.06;;;5.19;100.00
73516;BME280;61763;51.416;5.442;2022-12-07T14:08:23;101484.06;;;5.36;100.00
73516;BME280;61763;51.416;5.442;2022-12-07T14:13:50;101478.28;;;5.59;100.00
73516;BME280;61763;51.416;5.442;2022-12-07T14:18:54;101475.34;;;5.73;100.00
73516;BME280;61763;51.416;5.442;2022-12-07T14:21:23;101470.84;;;5.73;100.00
73516;BME280;61763;51.416;5.442;2022-12-07T14:24:09;101462.25;;;5.57;100.00
73516;BME280;61763;51.416;5.442;2022-12-07T14:26:35;101466.88;;;5.48;100.00
73516;BME280;61763;51.416;5.442;2022-12-07T14:31:44;101456.09;;;5.52;100.00
73516;BME280;61763;51.416;5.442;2022-12-07T14:34:13;101458.84;;;5.48;100.00
73516;BME280;61763;51.416;5.442;2022-12-07T14:36:38;101446.53;;;5.40;100.00
73516;BME280;61763;51.416;5.442;2022-12-07T14:39:04;101450.19;;;5.35;100.00
73516;BME280;61763;51.416;5.442;2022-12-07T14:41:29;101456.25;;;5.43;100.00
73516;BME280;61763;51.416;5.442;2022-12-07T14:44:13;101446.78;;;5.25;100.00
73516;BME280;61763;51.416;5.442;2022-12-07T14:46:38;101445.28;;;5.10;100.00
73516;BME280;61763;51.416;5.442;2022-12-07T14:49:04;101447.25;;;4.99;100.00
73516;BME280;61763;51.416;5.442;2022-12-07T14:51:30;101439.28;;;4.96;100.00
73516;BME280;61763;51.416;5.442;2022-12-07T14:53:56;101447.41;;;4.91;100.00
73516;BME280;61763;51.416;5.442;2022-12-07T14:56:21;101444.06;;;4.77;100.00
73516;BME280;61763;51.416;5.442;2022-12-07T14:58:46;101444.91;;;4.82;100.00
73516;BME280;61763;51.416;5.442;2022-12-07T15:01:13;101440.50;;;4.78;100.00
73516;BME280;61763;51.416;5.442;2022-12-07T15:03:38;101446.78;;;4.73;100.00
73516;BME280;61763;51.416;5.442;2022-12-07T15:06:05;101442.22;;;4.82;100.00
73516;BME280;61763;51.416;5.442;2022-12-07T15:08:30;101445.97;;;4.70;100.00
73516;BME280;61763;51.416;5.442;2022-12-07T15:10:57;101438.03;;;4.64;100.00
73516;BME280;61763;51.416;5.442;2022-12-07T15:13:23;101436.44;;;4.53;100.00
73516;BME280;61763;51.416;5.442;2022-12-07T15:16:10;101432.06;;;4.49;100.00